Time;durP1;ratioP1;P1;durP2;ratioP2;P2;SDS_P1;SDS_P2;PMS_P1;PMS_P2;Temp;Humidity;BMP_temperature;BMP_pressure;BME280_temperature;BME280_humidity;BME280_pressure;Samples;Min_cycle;Max_cycle;Signal;HPM_P1;HPM_P2
2024/01/24 00:00:31;;;;;;;6.40;1.53;;;5.90;99.90;;;;;;5027279;28;20180;-56
2024/01/24 00:02:56;;;;;;;7.27;2.40;;;5.90;99.90;;;;;;5029862;28;20218;-57
2024/01/24 00:05:22;;;;;;;4.07;1.50;;;5.90;99.90;;;;;;5028102;28;20211;-59
2024/01/24 00:07:48;;;;;;;2.37;1.50;;;5.90;99.90;;;;;;5027537;28;20646;-55
2024/01/24 00:10:13;;;;;;;4.43;1.43;;;5.90;99.90;;;;;;5026519;28;20188;-59
2024/01/24 00:12:39;;;;;;;7.53;2.30;;;5.80;99.90;;;;;;5028632;28;20226;-57
2024/01/24 00:15:05;;;;;;;5.13;1.57;;;5.80;99.90;;;;;;5027165;28;20200;-57
2024/01/24 00:17:31;;;;;;;3.80;1.63;;;5.80;99.90;;;;;;5021773;28;20168;-58
2024/01/24 00:19:56;;;;;;;4.20;2.00;;;5.80;99.90;;;;;;5026829;28;20423;-60
2024/01/24 00:22:22;;;;;;;9.13;2.30;;;5.80;99.90;;;;;;5029039;28;20203;-55
2024/01/24 00:24:47;;;;;;;4.70;1.90;;;5.80;99.90;;;;;;5024324;28;20244;-58
2024/01/24 00:27:13;;;;;;;3.23;2.00;;;5.80;99.90;;;;;;5025940;28;20195;-58
2024/01/24 00:29:39;;;;;;;5.00;1.70;;;5.80;99.90;;;;;;5026581;28;20203;-58
2024/01/24 00:32:05;;;;;;;4.60;1.67;;;5.90;99.90;;;;;;5027503;28;20191;-58
2024/01/24 00:34:31;;;;;;;4.80;1.80;;;5.90;99.90;;;;;;5026291;28;20462;-58
2024/01/24 00:36:56;;;;;;;1.73;1.33;;;5.90;99.90;;;;;;5029103;28;20187;-58
2024/01/24 00:39:22;;;;;;;6.03;1.47;;;5.90;99.90;;;;;;5021778;28;20184;-55
2024/01/24 00:41:47;;;;;;;3.70;2.00;;;6.00;99.90;;;;;;5030150;28;20273;-57
2024/01/24 00:44:14;;;;;;;4.83;1.50;;;6.00;99.90;;;;;;5025278;28;20968;-60
2024/01/24 00:46:40;;;;;;;2.50;1.40;;;6.00;99.90;;;;;;5025590;28;20212;-60
2024/01/24 00:49:10;;;;;;;6.67;3.00;;;6.00;99.90;;;;;;5027568;28;20505;-55
2024/01/24 00:51:36;;;;;;;8.90;1.40;;;6.00;99.90;;;;;;5026876;28;20456;-56
2024/01/24 00:54:02;;;;;;;5.13;1.40;;;6.00;99.90;;;;;;5028342;28;20944;-57
2024/01/24 00:56:28;;;;;;;4.80;1.60;;;6.10;99.90;;;;;;5026829;28;20426;-57
2024/01/24 00:58:53;;;;;;;8.73;1.67;;;6.00;99.90;;;;;;5028068;28;20179;-59
2024/01/24 01:01:20;;;;;;;4.10;1.77;;;6.10;99.90;;;;;;5027318;28;20648;-55
2024/01/24 01:03:45;;;;;;;4.93;1.70;;;6.10;99.90;;;;;;5027872;28;20194;-56
2024/01/24 01:06:11;;;;;;;3.17;1.60;;;6.10;99.90;;;;;;5025378;28;20537;-59
2024/01/24 01:08:37;;;;;;;5.80;1.60;;;6.10;99.90;;;;;;5024941;28;20203;-56
2024/01/24 01:11:04;;;;;;;4.47;1.50;;;6.10;99.90;;;;;;5026485;28;20661;-60
2024/01/24 01:13:32;;;;;;;2.37;1.43;;;6.10;99.90;;;;;;5024689;28;20207;-58
2024/01/24 01:15:58;;;;;;;2.00;1.30;;;6.10;99.90;;;;;;5025485;28;20434;-59
2024/01/24 01:18:23;;;;;;;6.53;1.70;;;6.20;99.90;;;;;;5027534;28;20433;-56
2024/01/24 01:20:49;;;;;;;7.43;1.93;;;6.20;99.90;;;;;;5023717;28;20559;-55
2024/01/24 01:23:14;;;;;;;4.47;1.60;;;6.20;99.90;;;;;;5022915;28;20179;-57
2024/01/24 01:25:40;;;;;;;2.83;1.47;;;6.20;99.90;;;;;;5018397;28;20269;-59
2024/01/24 01:28:06;;;;;;;5.07;1.50;;;6.20;99.90;;;;;;5026079;28;20712;-55
2024/01/24 01:30:31;;;;;;;3.07;1.80;;;6.20;99.90;;;;;;5023950;28;20207;-55
2024/01/24 01:32:57;;;;;;;2.03;1.33;;;6.20;99.90;;;;;;5028437;28;20687;-54
2024/01/24 01:35:22;;;;;;;3.70;1.73;;;6.20;99.90;;;;;;5022472;28;20207;-61
2024/01/24 01:37:48;;;;;;;2.60;1.77;;;6.20;99.90;;;;;;5027779;28;20259;-57
2024/01/24 01:40:14;;;;;;;4.47;1.40;;;6.20;99.90;;;;;;5023969;28;20847;-55
2024/01/24 01:42:45;;;;;;;1.67;1.10;;;6.20;99.90;;;;;;5025972;28;20199;-57
2024/01/24 01:45:11;;;;;;;1.90;1.30;;;6.20;99.90;;;;;;5025684;28;20219;-57
2024/01/24 01:47:38;;;;;;;3.70;1.53;;;6.20;99.90;;;;;;5026880;28;20411;-57
2024/01/24 01:50:08;;;;;;;1.50;1.30;;;6.20;99.90;;;;;;5027197;28;20890;-55
2024/01/24 01:52:34;;;;;;;2.90;1.10;;;6.30;99.90;;;;;;5027079;28;20426;-54
2024/01/24 01:54:59;;;;;;;2.03;1.10;;;6.30;99.90;;;;;;5026704;28;20466;-56
2024/01/24 01:57:25;;;;;;;6.00;1.37;;;6.30;99.90;;;;;;5023920;28;20182;-59
2024/01/24 01:59:51;;;;;;;2.83;1.20;;;6.40;99.90;;;;;;5022656;28;20799;-56
2024/01/24 02:02:17;;;;;;;2.63;1.30;;;6.40;99.90;;;;;;5022216;28;20430;-58
2024/01/24 02:04:43;;;;;;;3.30;1.20;;;6.50;99.90;;;;;;5025368;28;20439;-55
2024/01/24 02:07:08;;;;;;;1.87;1.10;;;6.50;99.90;;;;;;5025662;28;20178;-59
2024/01/24 02:09:34;;;;;;;1.83;1.43;;;6.70;99.90;;;;;;5027447;28;20706;-55
2024/01/24 02:12:00;;;;;;;1.97;1.00;;;6.80;99.90;;;;;;5025299;28;20194;-58
2024/01/24 02:14:25;;;;;;;5.20;0.90;;;6.90;99.90;;;;;;5022304;28;20562;-57
2024/01/24 02:16:51;;;;;;;1.60;1.37;;;7.10;99.90;;;;;;5023337;28;20183;-55
2024/01/24 02:19:16;;;;;;;3.27;1.37;;;7.20;99.90;;;;;;5024999;28;20275;-57
2024/01/24 02:22:05;;;;;;;2.80;1.33;;;7.30;99.90;;;;;;5026334;28;20171;-55
2024/01/24 02:24:31;;;;;;;1.40;1.07;;;7.40;99.90;;;;;;5018235;28;20211;-55
2024/01/24 02:26:56;;;;;;;1.40;1.10;;;7.50;99.90;;;;;;5025496;28;20484;-57
2024/01/24 02:29:22;;;;;;;1.20;1.10;;;7.60;99.90;;;;;;5025719;28;20198;-57
2024/01/24 02:31:47;;;;;;;0.90;0.90;;;7.80;99.90;;;;;;5024621;28;20176;-55
2024/01/24 02:34:13;;;;;;;1.10;0.90;;;7.80;99.90;;;;;;5022679;28;20874;-57
2024/01/24 02:36:38;;;;;;;1.10;1.00;;;7.80;99.90;;;;;;5025555;28;20183;-57
2024/01/24 02:39:04;;;;;;;1.40;1.30;;;7.80;99.90;;;;;;5024307;28;20247;-59
2024/01/24 02:41:31;;;;;;;2.23;1.13;;;7.80;99.90;;;;;;5025786;28;20598;-54
2024/01/24 02:43:57;;;;;;;2.90;1.30;;;7.80;99.90;;;;;;5025752;28;20273;-54
2024/01/24 02:46:22;;;;;;;2.23;1.20;;;7.90;99.90;;;;;;5022868;28;20450;-60
2024/01/24 02:48:48;;;;;;;1.63;1.00;;;8.00;99.90;;;;;;5020910;28;20179;-55
2024/01/24 02:51:23;;;;;;;2.00;1.23;;;8.00;99.90;;;;;;5025329;28;20179;-57
2024/01/24 02:53:49;;;;;;;1.70;1.20;;;8.00;99.90;;;;;;5025429;28;20578;-57
2024/01/24 02:56:14;;;;;;;0.90;0.90;;;8.10;99.90;;;;;;5024502;28;20466;-61
2024/01/24 02:58:40;;;;;;;2.23;1.33;;;8.10;99.90;;;;;;5026918;28;20229;-57
2024/01/24 03:01:06;;;;;;;2.00;1.17;;;8.20;99.90;;;;;;5023630;28;20180;-58
2024/01/24 03:03:31;;;;;;;2.50;1.13;;;8.20;99.90;;;;;;5026154;28;20180;-61
2024/01/24 03:05:57;;;;;;;5.83;1.10;;;8.30;99.90;;;;;;5016167;28;20592;-58
2024/01/24 03:08:22;;;;;;;3.27;1.47;;;8.30;99.90;;;;;;5024628;28;20180;-56
2024/01/24 03:10:48;;;;;;;2.80;1.30;;;8.40;99.90;;;;;;5024752;28;20191;-57
2024/01/24 03:13:14;;;;;;;2.03;1.20;;;8.40;99.90;;;;;;5024991;28;20281;-57
2024/01/24 03:15:39;;;;;;;1.20;1.10;;;8.40;99.90;;;;;;5028314;28;20521;-58
2024/01/24 03:18:05;;;;;;;1.97;1.10;;;8.50;99.90;;;;;;5025252;28;20179;-55
2024/01/24 03:20:31;;;;;;;2.07;1.03;;;8.50;99.90;;;;;;5023988;28;20843;-58
2024/01/24 03:22:56;;;;;;;4.20;1.43;;;8.50;99.90;;;;;;5026373;28;20569;-57
2024/01/24 03:25:22;;;;;;;4.90;1.40;;;8.50;99.90;;;;;;5027599;28;20273;-57
2024/01/24 03:27:47;;;;;;;3.73;1.20;;;8.50;99.90;;;;;;5025275;28;20250;-60
2024/01/24 03:30:13;;;;;;;2.13;1.30;;;8.60;99.90;;;;;;5024584;28;20576;-56
2024/01/24 03:32:39;;;;;;;1.27;1.00;;;8.60;99.90;;;;;;5027683;28;20672;-55
2024/01/24 03:35:06;;;;;;;2.30;1.10;;;8.60;99.90;;;;;;5024595;28;20473;-57
2024/01/24 03:37:32;;;;;;;1.90;1.27;;;8.60;99.90;;;;;;5028559;28;20623;-59
2024/01/24 03:39:58;;;;;;;4.60;1.63;;;8.60;99.90;;;;;;5025846;28;20438;-61
2024/01/24 03:42:23;;;;;;;2.80;1.20;;;8.60;99.90;;;;;;5028528;28;20275;-57
2024/01/24 03:44:49;;;;;;;1.63;1.10;;;8.60;99.90;;;;;;5028415;28;20196;-59
2024/01/24 03:47:15;;;;;;;2.23;1.40;;;8.60;99.90;;;;;;5027067;28;20192;-57
2024/01/24 03:49:40;;;;;;;2.07;1.10;;;8.60;99.90;;;;;;5022405;28;20184;-58
2024/01/24 03:52:06;;;;;;;1.30;1.20;;;8.70;99.90;;;;;;5027070;28;20655;-57
2024/01/24 03:54:31;;;;;;;1.57;1.00;;;8.70;99.90;;;;;;5028286;28;20203;-56
2024/01/24 03:56:57;;;;;;;0.97;0.93;;;8.70;99.90;;;;;;5026159;28;20672;-57
2024/01/24 03:59:23;;;;;;;1.63;1.13;;;8.70;99.90;;;;;;5027474;28;20184;-58
2024/01/24 04:01:48;;;;;;;1.13;1.00;;;8.70;99.90;;;;;;5027336;28;20190;-59
2024/01/24 04:04:14;;;;;;;3.07;1.10;;;8.80;99.90;;;;;;5027191;28;20206;-56
2024/01/24 04:06:40;;;;;;;6.50;1.33;;;8.80;99.90;;;;;;5026293;28;20176;-56
2024/01/24 04:09:06;;;;;;;4.87;1.10;;;8.80;99.90;;;;;;5027648;28;20425;-57
2024/01/24 04:11:32;;;;;;;1.10;1.10;;;8.80;99.90;;;;;;5026925;28;20438;-57
2024/01/24 04:13:57;;;;;;;1.40;1.00;;;8.80;99.90;;;;;;5024634;28;20207;-60
2024/01/24 04:16:23;;;;;;;1.90;1.50;;;8.80;99.90;;;;;;5024903;28;20202;-59
2024/01/24 04:18:52;;;;;;;1.80;1.20;;;8.80;99.90;;;;;;5028762;28;20236;-58
2024/01/24 04:21:17;;;;;;;3.03;1.00;;;8.90;99.90;;;;;;5028555;28;20226;-58
2024/01/24 04:23:43;;;;;;;2.17;1.10;;;8.90;99.90;;;;;;5023875;28;20828;-60
2024/01/24 04:26:09;;;;;;;1.73;1.27;;;8.90;99.90;;;;;;5041961;22;20252;-60
2024/01/24 04:28:35;;;;;;;2.90;1.43;;;9.00;99.90;;;;;;4995899;28;20168;-61
2024/01/24 04:31:01;;;;;;;1.27;1.10;;;9.00;99.90;;;;;;4987224;28;20526;-61
2024/01/24 04:33:27;;;;;;;1.20;1.10;;;9.10;99.90;;;;;;5004786;28;20577;-60
2024/01/24 04:35:55;;;;;;;2.80;1.40;;;9.10;99.90;;;;;;4991031;28;20203;-60
2024/01/24 04:38:21;;;;;;;1.20;1.03;;;9.20;99.90;;;;;;4979353;28;20795;-61
2024/01/24 04:40:46;;;;;;;3.83;1.40;;;9.20;99.90;;;;;;4979568;28;20551;-61
2024/01/24 04:43:12;;;;;;;1.73;1.20;;;9.30;99.90;;;;;;4977226;28;20792;-61
2024/01/24 04:45:38;;;;;;;2.13;1.20;;;9.30;99.90;;;;;;4973644;28;20178;-60
2024/01/24 04:48:04;;;;;;;1.33;0.93;;;9.30;99.90;;;;;;4962054;28;20186;-60
2024/01/24 04:50:29;;;;;;;2.80;1.27;;;9.40;99.90;;;;;;4979469;28;20177;-60
2024/01/24 04:52:55;;;;;;;5.17;1.67;;;9.40;99.90;;;;;;4969603;28;20552;-60
2024/01/24 04:55:20;;;;;;;4.20;1.67;;;9.40;99.90;;;;;;4973066;28;20654;-60
2024/01/24 04:57:46;;;;;;;1.43;1.20;;;9.40;99.90;;;;;;4973294;28;20185;-62
2024/01/24 05:00:12;;;;;;;2.90;1.50;;;9.30;99.90;;;;;;4968661;28;20188;-60
2024/01/24 05:02:38;;;;;;;8.20;1.43;;;9.30;99.90;;;;;;4968713;28;20182;-60
2024/01/24 05:05:07;;;;;;;4.67;1.40;;;9.30;99.90;;;;;;4965526;28;21022;-58
2024/01/24 05:07:36;;;;;;;2.33;1.60;;;9.30;99.90;;;;;;4953021;28;20474;-57
2024/01/24 05:10:03;;;;;;;3.17;1.50;;;9.30;99.90;;;;;;4967365;28;20508;-62
2024/01/24 05:12:29;;;;;;;4.17;1.40;;;9.30;99.90;;;;;;4960025;28;21241;-61
2024/01/24 05:14:56;;;;;;;1.40;1.30;;;9.30;99.90;;;;;;4972671;28;20471;-60
2024/01/24 05:17:21;;;;;;;7.20;1.93;;;9.30;99.90;;;;;;4971632;28;20834;-60
2024/01/24 05:19:48;;;;;;;4.70;1.67;;;9.30;99.90;;;;;;4985316;28;20425;-61
2024/01/24 05:22:14;;;;;;;2.20;1.50;;;9.20;99.90;;;;;;4966184;28;20531;-61
2024/01/24 05:24:43;;;;;;;1.40;1.30;;;9.20;99.90;;;;;;4959800;28;20425;-61
2024/01/24 05:27:09;;;;;;;4.07;1.60;;;9.20;99.90;;;;;;4961596;28;20206;-61
2024/01/24 05:29:34;;;;;;;1.20;1.10;;;9.20;99.90;;;;;;4961196;28;20444;-61
2024/01/24 05:32:00;;;;;;;3.17;1.60;;;9.20;99.90;;;;;;4976756;28;20843;-61
2024/01/24 05:34:26;;;;;;;3.73;1.97;;;9.20;99.90;;;;;;4961903;28;20216;-61
2024/01/24 05:36:53;;;;;;;2.00;1.40;;;9.20;99.90;;;;;;4979390;28;20203;-61
2024/01/24 05:39:19;;;;;;;2.57;1.30;;;9.20;99.90;;;;;;4962302;28;20328;-61
2024/01/24 05:41:45;;;;;;;4.17;1.50;;;9.20;99.90;;;;;;4969929;28;20931;-61
2024/01/24 05:44:10;;;;;;;3.10;1.17;;;9.20;99.90;;;;;;4965027;28;20441;-61
2024/01/24 05:46:36;;;;;;;4.03;1.50;;;9.20;99.90;;;;;;4967701;28;20228;-61
2024/01/24 05:49:01;;;;;;;1.63;1.50;;;9.20;99.90;;;;;;4967403;28;20977;-60
2024/01/24 05:51:27;;;;;;;1.30;1.20;;;9.20;99.90;;;;;;4973777;28;20670;-60
2024/01/24 05:53:53;;;;;;;1.90;1.27;;;9.20;99.90;;;;;;4966522;28;20210;-61
2024/01/24 05:56:19;;;;;;;4.30;1.50;;;9.20;99.90;;;;;;4963843;28;20204;-61
2024/01/24 05:58:45;;;;;;;3.90;1.30;;;9.20;99.90;;;;;;4962468;28;20429;-61
2024/01/24 06:01:10;;;;;;;2.00;1.50;;;9.20;99.90;;;;;;4961416;28;21535;-61
2024/01/24 06:03:36;;;;;;;3.80;1.47;;;9.20;99.90;;;;;;4969824;28;20189;-61
2024/01/24 06:06:02;;;;;;;1.80;1.23;;;9.20;99.90;;;;;;4971889;28;20214;-60
2024/01/24 06:08:31;;;;;;;2.90;1.67;;;9.20;99.90;;;;;;4968126;28;20186;-60
2024/01/24 06:10:56;;;;;;;1.73;1.10;;;9.30;99.90;;;;;;4975255;28;20182;-60
2024/01/24 06:13:22;;;;;;;4.37;1.50;;;9.30;99.90;;;;;;4965346;28;21116;-61
2024/01/24 06:15:48;;;;;;;2.23;1.40;;;9.30;99.90;;;;;;4964964;28;20704;-60
2024/01/24 06:18:13;;;;;;;6.90;1.47;;;9.30;99.90;;;;;;4961326;28;20191;-60
2024/01/24 06:20:39;;;;;;;2.10;1.43;;;9.30;99.90;;;;;;4960728;28;20178;-61
2024/01/24 06:23:04;;;;;;;2.20;1.70;;;9.30;99.90;;;;;;4965160;28;20186;-61
2024/01/24 06:25:30;;;;;;;6.13;1.77;;;9.30;99.90;;;;;;4964752;28;20189;-61
2024/01/24 06:27:56;;;;;;;1.87;1.43;;;9.20;99.90;;;;;;4961870;28;20217;-61
2024/01/24 06:30:21;;;;;;;6.53;1.60;;;9.20;99.90;;;;;;4962603;28;20197;-60
2024/01/24 06:32:47;;;;;;;4.40;1.70;;;9.20;99.90;;;;;;4959832;28;20549;-61
2024/01/24 06:35:13;;;;;;;6.00;1.57;;;9.20;99.90;;;;;;4962128;28;20364;-61
2024/01/24 06:37:39;;;;;;;6.03;1.40;;;9.20;99.90;;;;;;4962535;28;21023;-60
2024/01/24 06:40:06;;;;;;;3.17;1.50;;;9.20;99.90;;;;;;4968223;28;20185;-60
2024/01/24 06:42:31;;;;;;;2.50;1.60;;;9.20;99.90;;;;;;4962081;28;20204;-61
2024/01/24 06:44:57;;;;;;;2.30;1.20;;;9.20;99.90;;;;;;4970859;28;20528;-61
2024/01/24 06:47:22;;;;;;;2.00;1.23;;;9.20;99.90;;;;;;4965617;28;20220;-61
2024/01/24 06:49:48;;;;;;;2.43;1.40;;;9.20;99.90;;;;;;4965734;28;20186;-60
2024/01/24 06:52:14;;;;;;;2.00;1.47;;;9.10;99.90;;;;;;4965787;28;20186;-60
2024/01/24 06:54:39;;;;;;;2.77;1.33;;;9.10;99.90;;;;;;4965917;28;20376;-61
2024/01/24 06:57:05;;;;;;;3.00;1.60;;;9.10;99.90;;;;;;4973508;28;20578;-60
2024/01/24 06:59:31;;;;;;;6.73;2.10;;;9.10;99.90;;;;;;4969673;28;20186;-60
2024/01/24 07:01:58;;;;;;;4.60;2.10;;;9.10;99.90;;;;;;4960206;28;20189;-60
2024/01/24 07:04:24;;;;;;;3.33;1.37;;;9.10;99.90;;;;;;4967374;28;20429;-61
2024/01/24 07:06:50;;;;;;;2.43;1.50;;;9.10;99.90;;;;;;4972794;28;20460;-61
2024/01/24 07:09:16;;;;;;;3.13;1.70;;;9.10;99.90;;;;;;4967376;28;20431;-61
2024/01/24 07:11:41;;;;;;;3.53;2.43;;;9.00;99.90;;;;;;4970869;28;20465;-60
2024/01/24 07:14:07;;;;;;;3.97;1.73;;;9.00;99.90;;;;;;4966729;28;20200;-60
2024/01/24 07:16:32;;;;;;;2.80;1.60;;;9.00;99.90;;;;;;4970261;28;20206;-60
2024/01/24 07:18:58;;;;;;;4.13;1.70;;;9.00;99.90;;;;;;4958307;28;20857;-61
2024/01/24 07:21:25;;;;;;;6.80;1.70;;;9.00;99.90;;;;;;4963474;28;20181;-60
2024/01/24 07:23:50;;;;;;;3.40;1.77;;;9.10;99.90;;;;;;4959100;28;20177;-60
2024/01/24 07:26:16;;;;;;;2.03;1.50;;;9.10;99.90;;;;;;4957792;28;20527;-55
2024/01/24 07:28:42;;;;;;;6.40;1.60;;;9.10;99.90;;;;;;4959454;28;20178;-61
2024/01/24 07:31:07;;;;;;;1.73;1.43;;;9.10;99.90;;;;;;4962788;28;20735;-60
2024/01/24 07:33:33;;;;;;;3.30;1.37;;;9.10;99.90;;;;;;4965420;28;20204;-60
2024/01/24 07:35:58;;;;;;;3.03;1.53;;;9.20;99.90;;;;;;4972989;28;20190;-60
2024/01/24 07:38:24;;;;;;;5.50;1.97;;;9.20;99.90;;;;;;4964276;28;20248;-60
2024/01/24 07:40:50;;;;;;;2.27;1.60;;;9.20;99.90;;;;;;4968988;28;20177;-60
2024/01/24 07:43:15;;;;;;;2.40;1.40;;;9.20;99.90;;;;;;4970980;28;20270;-60
2024/01/24 07:45:41;;;;;;;3.70;1.20;;;9.20;99.90;;;;;;4963838;28;20680;-60
2024/01/24 07:48:07;;;;;;;1.30;1.20;;;9.20;99.90;;;;;;4967784;28;20265;-60
2024/01/24 07:50:33;;;;;;;2.17;1.60;;;9.30;99.90;;;;;;4968518;28;20178;-60
2024/01/24 07:52:59;;;;;;;1.60;1.50;;;9.30;99.90;;;;;;4971363;28;20442;-60
2024/01/24 07:55:24;;;;;;;3.00;1.90;;;9.30;99.90;;;;;;4961849;28;20572;-60
2024/01/24 07:57:50;;;;;;;2.97;1.70;;;9.30;99.90;;;;;;4963210;28;20186;-60
2024/01/24 08:00:16;;;;;;;1.73;1.27;;;9.30;99.90;;;;;;4966232;28;20229;-59
2024/01/24 08:02:45;;;;;;;5.33;1.53;;;9.30;99.90;;;;;;4965919;28;20170;-60
2024/01/24 08:05:12;;;;;;;3.10;1.47;;;9.30;99.90;;;;;;4962621;28;20435;-61
2024/01/24 08:07:40;;;;;;;3.10;1.60;;;9.20;99.90;;;;;;4960661;28;20497;-57
2024/01/24 08:10:06;;;;;;;1.70;1.60;;;9.20;99.90;;;;;;4960978;28;20441;-60
2024/01/24 08:12:31;;;;;;;1.60;1.40;;;9.30;99.90;;;;;;4974541;28;20439;-60
2024/01/24 08:14:57;;;;;;;1.73;1.60;;;9.30;99.90;;;;;;4964684;28;20461;-60
2024/01/24 08:17:23;;;;;;;1.63;1.10;;;9.30;99.90;;;;;;4962694;28;20955;-60
2024/01/24 08:19:48;;;;;;;2.40;1.40;;;9.30;99.90;;;;;;4964884;28;20182;-59
2024/01/24 08:22:14;;;;;;;1.30;1.10;;;9.30;99.90;;;;;;4963767;28;20217;-61
2024/01/24 08:24:39;;;;;;;1.60;1.50;;;9.40;99.90;;;;;;4966592;28;20189;-60
2024/01/24 08:27:05;;;;;;;2.30;1.60;;;9.40;99.90;;;;;;4962521;28;20225;-60
2024/01/24 08:29:31;;;;;;;1.80;1.40;;;9.40;99.90;;;;;;4959888;28;20190;-60
2024/01/24 08:31:56;;;;;;;2.33;1.30;;;9.40;99.90;;;;;;4967548;28;20186;-61
2024/01/24 08:34:22;;;;;;;1.63;1.53;;;9.40;99.90;;;;;;4961598;28;20209;-60
2024/01/24 08:36:47;;;;;;;2.60;1.50;;;9.50;99.90;;;;;;4961634;28;20193;-60
2024/01/24 08:39:14;;;;;;;2.17;1.50;;;9.50;99.90;;;;;;4965835;28;20182;-60
2024/01/24 08:41:40;;;;;;;2.83;1.30;;;9.50;99.90;;;;;;4962642;28;20209;-60
2024/01/24 08:44:06;;;;;;;4.60;1.50;;;9.60;99.90;;;;;;4968376;28;21067;-60
2024/01/24 08:46:32;;;;;;;4.50;1.83;;;9.60;99.90;;;;;;4956323;28;20823;-60
2024/01/24 08:48:57;;;;;;;1.03;1.00;;;9.70;99.90;;;;;;4968782;28;20174;-61
2024/01/24 08:51:25;;;;;;;1.20;1.10;;;9.70;99.90;;;;;;4969050;28;20457;-60
2024/01/24 08:53:51;;;;;;;3.80;1.30;;;9.70;99.90;;;;;;4963441;28;20289;-61
2024/01/24 08:56:18;;;;;;;1.00;1.00;;;9.80;99.90;;;;;;4962912;28;20532;-61
2024/01/24 08:58:43;;;;;;;1.67;1.23;;;9.80;99.90;;;;;;4967621;28;20170;-60
2024/01/24 09:01:09;;;;;;;1.13;0.93;;;9.80;99.90;;;;;;4968431;28;20451;-61
2024/01/24 09:03:34;;;;;;;1.03;0.90;;;9.90;99.90;;;;;;4963172;28;20181;-62
2024/01/24 09:06:00;;;;;;;1.37;0.80;;;9.90;99.90;;;;;;4965887;28;20230;-61
2024/01/24 09:08:26;;;;;;;1.60;1.27;;;9.90;99.90;;;;;;4963861;28;20178;-61
2024/01/24 09:10:52;;;;;;;1.37;1.10;;;10.00;99.90;;;;;;4961455;28;20175;-61
2024/01/24 09:13:21;;;;;;;4.70;1.03;;;10.00;99.90;;;;;;4961947;28;20205;-60
2024/01/24 09:15:47;;;;;;;8.60;0.90;;;10.00;99.90;;;;;;4963440;28;20448;-61
2024/01/24 09:18:13;;;;;;;1.37;1.10;;;10.10;99.90;;;;;;4964345;28;20430;-61
2024/01/24 09:20:38;;;;;;;1.47;1.20;;;10.20;99.90;;;;;;4966668;28;20588;-61
2024/01/24 09:23:04;;;;;;;1.47;1.00;;;10.20;99.90;;;;;;4961588;28;20233;-62
2024/01/24 09:25:30;;;;;;;1.20;1.10;;;10.20;99.90;;;;;;4965207;28;20556;-61
2024/01/24 09:27:56;;;;;;;0.90;0.90;;;10.30;99.90;;;;;;4955080;28;20182;-58
2024/01/24 09:30:22;;;;;;;1.10;0.90;;;10.30;99.90;;;;;;4959062;28;21085;-61
2024/01/24 09:32:47;;;;;;;2.37;1.17;;;10.30;99.90;;;;;;4964322;28;20505;-59
2024/01/24 09:35:13;;;;;;;1.10;1.00;;;10.30;99.90;;;;;;4960639;28;20217;-61
2024/01/24 09:37:39;;;;;;;1.00;0.90;;;10.40;99.90;;;;;;4962768;28;20193;-61
2024/01/24 09:40:06;;;;;;;0.80;0.80;;;10.40;99.90;;;;;;4964825;28;20560;-61
2024/01/24 09:42:35;;;;;;;0.90;0.90;;;10.50;99.90;;;;;;4973799;28;20430;-61
2024/01/24 09:45:05;;;;;;;0.90;0.80;;;10.50;99.90;;;;;;4963332;28;20541;-61
2024/01/24 09:47:31;;;;;;;1.53;0.97;;;10.60;99.90;;;;;;4961541;28;20465;-60
2024/01/24 09:49:59;;;;;;;2.10;1.30;;;10.60;99.90;;;;;;4961095;28;20457;-61
2024/01/24 09:52:26;;;;;;;0.80;0.80;;;10.60;99.90;;;;;;4963716;28;20739;-61
2024/01/24 09:55:04;;;;;;;0.80;0.80;;;10.70;99.90;;;;;;4964794;28;20595;-61
2024/01/24 09:57:32;;;;;;;0.90;0.80;;;10.80;99.90;;;;;;4963731;28;21033;-61
2024/01/24 09:59:58;;;;;;;1.50;1.00;;;10.80;99.90;;;;;;4966635;28;20437;-61
2024/01/24 10:02:26;;;;;;;0.90;0.90;;;10.90;99.90;;;;;;4967895;28;20523;-61
2024/01/24 10:04:52;;;;;;;0.77;0.77;;;11.00;99.90;;;;;;4966964;28;20187;-61
2024/01/24 10:07:19;;;;;;;0.73;0.73;;;11.00;99.90;;;;;;4964304;28;20448;-61
2024/01/24 10:09:46;;;;;;;0.90;0.80;;;11.10;99.90;;;;;;4967569;28;20432;-61
2024/01/24 10:12:12;;;;;;;0.80;0.80;;;11.20;99.90;;;;;;4965593;28;20432;-60
2024/01/24 10:14:40;;;;;;;0.80;0.80;;;11.30;99.90;;;;;;4970050;28;20875;-61
2024/01/24 10:17:09;;;;;;;1.47;1.33;;;11.30;99.90;;;;;;4974582;28;20211;-60
2024/01/24 10:19:36;;;;;;;0.90;0.90;;;11.40;99.90;;;;;;4966268;28;20429;-61
2024/01/24 10:22:02;;;;;;;0.80;0.80;;;11.40;99.90;;;;;;4974510;28;20422;-61
2024/01/24 10:24:31;;;;;;;0.97;0.90;;;11.50;99.90;;;;;;4963791;28;20433;-61
2024/01/24 10:26:57;;;;;;;1.17;0.97;;;11.50;99.90;;;;;;4996651;23;20552;-62
2024/01/24 10:29:22;;;;;;;1.90;0.70;;;11.60;99.90;;;;;;5000164;28;20434;-58
2024/01/24 10:31:55;;;;;;;1.43;0.77;;;11.60;99.90;;;;;;5003451;28;20189;-58
2024/01/24 10:34:25;;;;;;;1.43;0.97;;;11.60;99.90;;;;;;5005644;28;20222;-60
2024/01/24 10:36:51;;;;;;;0.73;0.70;;;11.70;99.90;;;;;;5003133;28;20461;-59
2024/01/24 10:39:27;;;;;;;0.80;0.80;;;11.70;99.90;;;;;;5001961;28;20509;-60
2024/01/24 10:41:54;;;;;;;1.93;1.10;;;11.70;99.90;;;;;;5006331;28;20522;-58
2024/01/24 10:44:24;;;;;;;0.80;0.80;;;11.70;99.90;;;;;;5000418;28;20971;-59
2024/01/24 10:46:51;;;;;;;0.80;0.80;;;11.70;99.90;;;;;;5005324;28;20446;-59
2024/01/24 10:49:18;;;;;;;1.60;0.93;;;11.70;99.90;;;;;;5003716;28;20431;-59
2024/01/24 10:51:46;;;;;;;1.10;1.00;;;11.70;99.90;;;;;;5002280;28;20431;-60
2024/01/24 10:54:15;;;;;;;1.00;1.00;;;11.70;99.90;;;;;;5001395;28;20537;-58
2024/01/24 10:56:48;;;;;;;1.10;0.90;;;11.70;99.90;;;;;;5000036;28;20427;-58
2024/01/24 10:59:14;;;;;;;0.80;0.80;;;11.80;99.90;;;;;;5005749;28;20431;-61
2024/01/24 11:01:40;;;;;;;1.20;1.10;;;11.80;99.90;;;;;;5005366;28;20499;-61
2024/01/24 11:04:07;;;;;;;0.80;0.80;;;11.80;99.90;;;;;;5001445;28;20212;-56
2024/01/24 11:06:36;;;;;;;0.93;0.90;;;11.90;99.90;;;;;;4999897;28;20188;-57
2024/01/24 11:09:34;;;;;;;1.00;0.90;;;12.00;99.90;;;;;;5002420;28;20461;-58
2024/01/24 11:12:00;;;;;;;0.70;0.70;;;12.10;99.90;;;;;;5005909;28;20458;-57
2024/01/24 11:14:31;;;;;;;0.73;0.73;;;12.30;99.90;;;;;;5002348;28;20498;-60
2024/01/24 11:17:03;;;;;;;0.70;0.70;;;12.30;99.90;;;;;;5000910;28;20462;-61
2024/01/24 11:19:30;;;;;;;0.70;0.70;;;12.30;99.90;;;;;;5003633;28;20396;-60
2024/01/24 11:22:04;;;;;;;1.07;1.07;;;12.30;99.90;;;;;;5001348;28;20478;-60
2024/01/24 11:24:44;;;;;;;3.23;2.27;;;12.30;99.90;;;;;;5000123;28;20513;-53
2024/01/24 11:27:33;;;;;;;0.90;0.90;;;12.30;99.90;;;;;;4991475;28;20455;-62
2024/01/24 11:30:05;;;;;;;1.70;1.60;;;12.30;99.90;;;;;;4995619;28;20826;-60
2024/01/24 11:32:50;;;;;;;0.80;0.80;;;12.30;99.90;;;;;;4991842;28;20442;-60
2024/01/24 11:35:36;;;;;;;0.70;0.70;;;12.20;99.90;;;;;;5001269;28;20462;-60
2024/01/24 11:38:27;;;;;;;1.70;1.20;;;12.20;99.90;;;;;;5005805;28;20570;-60
2024/01/24 11:41:02;;;;;;;0.97;0.97;;;12.10;99.90;;;;;;5008101;28;20427;-60
2024/01/24 11:43:35;;;;;;;0.90;0.80;;;12.10;99.90;;;;;;5003045;28;20525;-61
2024/01/24 11:46:03;;;;;;;0.87;0.87;;;12.00;99.90;;;;;;5001641;28;20445;-61
2024/01/24 11:48:31;;;;;;;0.80;0.80;;;12.00;99.90;;;;;;5000828;28;20443;-58
2024/01/24 11:51:01;;;;;;;0.70;0.70;;;12.00;99.90;;;;;;4998911;28;20434;-60
2024/01/24 11:53:28;;;;;;;0.80;0.80;;;12.00;99.90;;;;;;5003176;28;20474;-61
2024/01/24 11:56:02;;;;;;;1.67;0.70;;;12.00;99.90;;;;;;5003456;28;20431;-61
2024/01/24 11:58:29;;;;;;;1.23;0.80;;;12.00;99.90;;;;;;5004856;28;20881;-61
2024/01/24 12:01:08;;;;;;;1.73;0.97;;;11.90;99.90;;;;;;5005054;28;20450;-61
2024/01/24 12:03:34;;;;;;;1.27;0.80;;;11.90;99.90;;;;;;5005574;28;20524;-62
2024/01/24 12:06:00;;;;;;;1.00;0.80;;;11.90;99.90;;;;;;5003379;28;20942;-61
2024/01/24 12:08:28;;;;;;;1.17;0.80;;;11.80;99.90;;;;;;5004306;28;20204;-61
2024/01/24 12:10:54;;;;;;;2.20;1.37;;;11.80;99.90;;;;;;5001978;28;20439;-59
2024/01/24 12:13:23;;;;;;;0.70;0.70;;;11.80;99.90;;;;;;4999662;28;20430;-60
2024/01/24 12:15:50;;;;;;;0.63;0.63;;;11.80;99.90;;;;;;5003925;28;20290;-60
2024/01/24 12:18:16;;;;;;;0.83;0.83;;;11.80;99.90;;;;;;5003334;28;20458;-59
2024/01/24 12:20:49;;;;;;;0.90;0.60;;;11.70;99.90;;;;;;5005602;28;20425;-59
2024/01/24 12:23:15;;;;;;;0.90;0.70;;;11.70;99.90;;;;;;5007292;28;20263;-60
2024/01/24 12:25:43;;;;;;;0.70;0.70;;;11.70;99.90;;;;;;5006415;28;20537;-60
2024/01/24 12:28:09;;;;;;;1.23;0.70;;;11.70;99.90;;;;;;5003434;28;20486;-61
2024/01/24 12:30:35;;;;;;;0.80;0.80;;;11.80;99.90;;;;;;5007509;28;20791;-59
2024/01/24 12:33:03;;;;;;;0.80;0.80;;;11.80;99.90;;;;;;5007880;28;20435;-60
2024/01/24 12:35:29;;;;;;;0.90;0.90;;;11.80;99.90;;;;;;5008851;28;20459;-60
2024/01/24 12:38:02;;;;;;;0.97;0.80;;;11.80;99.90;;;;;;5008628;28;20442;-60
2024/01/24 12:40:30;;;;;;;1.93;0.80;;;11.80;99.90;;;;;;5006950;28;21391;-60
2024/01/24 12:42:56;;;;;;;0.70;0.70;;;11.80;99.90;;;;;;5006280;28;20458;-61
2024/01/24 12:45:27;;;;;;;0.70;0.70;;;11.90;99.90;;;;;;5006308;28;20799;-59
2024/01/24 12:47:53;;;;;;;0.80;0.70;;;11.90;99.90;;;;;;4998506;28;20466;-55
2024/01/24 12:50:21;;;;;;;0.80;0.80;;;11.90;99.90;;;;;;5002044;28;20458;-61
2024/01/24 12:52:47;;;;;;;0.80;0.80;;;11.80;99.90;;;;;;5001774;28;20443;-60